sensor_id;sensor_type;location;lat;lon;timestamp;temperature;humidity
55693;DHT22;41590;53.366;5.212;2023-07-28T00:47:00;17.90;99.90
55693;DHT22;41590;53.366;5.212;2023-07-28T00:49:28;18.10;99.90
55693;DHT22;41590;53.366;5.212;2023-07-28T00:52:06;18.10;99.90
55693;DHT22;41590;53.366;5.212;2023-07-28T00:54:42;18.10;99.90
55693;DHT22;41590;53.366;5.212;2023-07-28T00:57:21;18.30;99.90
55693;DHT22;41590;53.366;5.212;2023-07-28T00:59:53;18.50;99.90
55693;DHT22;41590;53.366;5.212;2023-07-28T01:02:28;17.60;99.90
55693;DHT22;41590;53.366;5.212;2023-07-28T01:05:03;17.80;99.90
55693;DHT22;41590;53.366;5.212;2023-07-28T01:07:56;18.20;99.90
55693;DHT22;41590;53.366;5.212;2023-07-28T01:10:45;18.30;99.90
55693;DHT22;41590;53.366;5.212;2023-07-28T01:13:25;17.60;99.90
55693;DHT22;41590;53.366;5.212;2023-07-28T01:15:51;17.50;99.90
55693;DHT22;41590;53.366;5.212;2023-07-28T01:18:21;17.50;99.90
55693;DHT22;41590;53.366;5.212;2023-07-28T01:20:50;18.10;99.90
55693;DHT22;41590;53.366;5.212;2023-07-28T01:26:11;18.00;99.90
55693;DHT22;41590;53.366;5.212;2023-07-28T01:28:48;17.30;99.90
55693;DHT22;41590;53.366;5.212;2023-07-28T01:31:14;18.20;99.90
55693;DHT22;41590;53.366;5.212;2023-07-28T01:33:41;17.20;99.90
55693;DHT22;41590;53.366;5.212;2023-07-28T01:43:27;18.10;99.90
55693;DHT22;41590;53.366;5.212;2023-07-28T01:45:53;18.00;99.90
55693;DHT22;41590;53.366;5.212;2023-07-28T01:48:19;17.20;99.90
55693;DHT22;41590;53.366;5.212;2023-07-28T01:50:51;17.10;99.90
55693;DHT22;41590;53.366;5.212;2023-07-28T01:53:17;18.00;99.90
55693;DHT22;41590;53.366;5.212;2023-07-28T01:55:46;17.10;99.90
55693;DHT22;41590;53.366;5.212;2023-07-28T01:58:11;17.20;99.90
55693;DHT22;41590;53.366;5.212;2023-07-28T02:00:40;18.00;99.90
55693;DHT22;41590;53.366;5.212;2023-07-28T02:03:23;18.10;99.90
55693;DHT22;41590;53.366;5.212;2023-07-28T02:05:50;18.20;99.90
55693;DHT22;41590;53.366;5.212;2023-07-28T02:08:22;18.20;99.90
55693;DHT22;41590;53.366;5.212;2023-07-28T02:11:09;18.20;99.90
55693;DHT22;41590;53.366;5.212;2023-07-28T02:17:02;18.20;99.90
55693;DHT22;41590;53.366;5.212;2023-07-28T02:19:31;18.20;99.90
55693;DHT22;41590;53.366;5.212;2023-07-28T02:22:12;17.40;99.90
55693;DHT22;41590;53.366;5.212;2023-07-28T02:24:49;17.50;99.90
55693;DHT22;41590;53.366;5.212;2023-07-28T02:28:01;18.30;99.90
55693;DHT22;41590;53.366;5.212;2023-07-28T02:30:55;17.70;99.90
55693;DHT22;41590;53.366;5.212;2023-07-28T02:33:36;17.40;99.90
55693;DHT22;41590;53.366;5.212;2023-07-28T02:36:05;17.40;99.90
55693;DHT22;41590;53.366;5.212;2023-07-28T02:39:05;17.50;99.90
55693;DHT22;41590;53.366;5.212;2023-07-28T02:41:35;18.20;99.90
55693;DHT22;41590;53.366;5.212;2023-07-28T02:44:00;17.60;99.90
55693;DHT22;41590;53.366;5.212;2023-07-28T02:46:29;17.40;99.90
55693;DHT22;41590;53.366;5.212;2023-07-28T02:48:58;18.00;99.90
55693;DHT22;41590;53.366;5.212;2023-07-28T02:51:25;18.20;99.90
55693;DHT22;41590;53.366;5.212;2023-07-28T02:53:51;18.10;99.90
55693;DHT22;41590;53.366;5.212;2023-07-28T02:56:27;17.90;99.90
55693;DHT22;41590;53.366;5.212;2023-07-28T02:58:53;18.10;99.90
55693;DHT22;41590;53.366;5.212;2023-07-28T03:01:25;17.80;99.90
55693;DHT22;41590;53.366;5.212;2023-07-28T03:03:51;17.60;99.90
55693;DHT22;41590;53.366;5.212;2023-07-28T03:06:19;18.10;99.90
55693;DHT22;41590;53.366;5.212;2023-07-28T03:08:47;18.10;99.90
55693;DHT22;41590;53.366;5.212;2023-07-28T03:11:13;18.10;99.90
55693;DHT22;41590;53.366;5.212;2023-07-28T03:13:40;17.70;99.90
55693;DHT22;41590;53.366;5.212;2023-07-28T03:16:07;18.00;99.90
55693;DHT22;41590;53.366;5.212;2023-07-28T03:18:33;17.90;99.90
55693;DHT22;41590;53.366;5.212;2023-07-28T03:21:00;17.60;99.90
55693;DHT22;41590;53.366;5.212;2023-07-28T03:23:30;17.40;99.90
55693;DHT22;41590;53.366;5.212;2023-07-28T03:25:56;17.60;99.90
55693;DHT22;41590;53.366;5.212;2023-07-28T03:28:55;18.00;99.90
55693;DHT22;41590;53.366;5.212;2023-07-28T03:31:22;17.50;99.90
55693;DHT22;41590;53.366;5.212;2023-07-28T03:34:10;17.90;99.90
55693;DHT22;41590;53.366;5.212;2023-07-28T03:36:44;17.90;99.90
55693;DHT22;41590;53.366;5.212;2023-07-28T03:46:24;17.30;99.90
55693;DHT22;41590;53.366;5.212;2023-07-28T03:49:00;17.80;99.90
55693;DHT22;41590;53.366;5.212;2023-07-28T03:51:29;17.40;99.90
55693;DHT22;41590;53.366;5.212;2023-07-28T03:54:07;18.00;99.90
55693;DHT22;41590;53.366;5.212;2023-07-28T03:56:32;17.40;99.90
55693;DHT22;41590;53.366;5.212;2023-07-28T03:59:10;17.90;99.90
55693;DHT22;41590;53.366;5.212;2023-07-28T04:01:39;17.50;99.90
55693;DHT22;41590;53.366;5.212;2023-07-28T04:04:08;17.40;99.90
55693;DHT22;41590;53.366;5.212;2023-07-28T04:06:43;17.90;99.90
55693;DHT22;41590;53.366;5.212;2023-07-28T04:09:19;17.50;99.90
55693;DHT22;41590;53.366;5.212;2023-07-28T04:11:49;17.80;99.90
55693;DHT22;41590;53.366;5.212;2023-07-28T04:14:19;18.10;99.90
55693;DHT22;41590;53.366;5.212;2023-07-28T04:16:45;18.30;99.90
55693;DHT22;41590;53.366;5.212;2023-07-28T04:19:11;17.20;99.90
55693;DHT22;41590;53.366;5.212;2023-07-28T04:21:57;17.40;99.90
55693;DHT22;41590;53.366;5.212;2023-07-28T04:24:23;18.00;99.90
55693;DHT22;41590;53.366;5.212;2023-07-28T04:26:52;18.30;99.90
55693;DHT22;41590;53.366;5.212;2023-07-28T04:29:18;17.20;99.90
55693;DHT22;41590;53.366;5.212;2023-07-28T04:31:43;18.30;99.90
55693;DHT22;41590;53.366;5.212;2023-07-28T04:34:09;17.30;99.90
55693;DHT22;41590;53.366;5.212;2023-07-28T04:36:36;17.50;99.90
55693;DHT22;41590;53.366;5.212;2023-07-28T04:39:04;17.60;99.90
55693;DHT22;41590;53.366;5.212;2023-07-28T04:41:31;17.50;99.90
55693;DHT22;41590;53.366;5.212;2023-07-28T04:44:09;17.20;99.90
55693;DHT22;41590;53.366;5.212;2023-07-28T04:46:45;17.60;99.90
55693;DHT22;41590;53.366;5.212;2023-07-28T04:49:45;18.20;99.90
55693;DHT22;41590;53.366;5.212;2023-07-28T04:52:14;18.20;99.90
55693;DHT22;41590;53.366;5.212;2023-07-28T04:54:46;17.20;99.90
55693;DHT22;41590;53.366;5.212;2023-07-28T04:57:15;18.10;99.90
55693;DHT22;41590;53.366;5.212;2023-07-28T04:59:44;18.20;99.90
55693;DHT22;41590;53.366;5.212;2023-07-28T05:02:11;18.10;99.90
55693;DHT22;41590;53.366;5.212;2023-07-28T05:04:37;17.50;99.90
55693;DHT22;41590;53.366;5.212;2023-07-28T05:07:09;17.80;99.90
55693;DHT22;41590;53.366;5.212;2023-07-28T05:09:39;17.80;99.90
55693;DHT22;41590;53.366;5.212;2023-07-28T05:12:15;17.40;99.90
55693;DHT22;41590;53.366;5.212;2023-07-28T05:14:46;17.30;99.90
55693;DHT22;41590;53.366;5.212;2023-07-28T19:02:15;22.40;99.90
55693;DHT22;41590;53.366;5.212;2023-07-28T19:04:40;20.20;99.90
55693;DHT22;41590;53.366;5.212;2023-07-28T19:07:08;20.20;99.90
55693;DHT22;41590;53.366;5.212;2023-07-28T19:09:36;19.90;99.90
55693;DHT22;41590;53.366;5.212;2023-07-28T19:12:03;20.10;99.90
55693;DHT22;41590;53.366;5.212;2023-07-28T19:14:28;19.80;99.90
55693;DHT22;41590;53.366;5.212;2023-07-28T19:16:55;19.90;99.90
55693;DHT22;41590;53.366;5.212;2023-07-28T19:19:21;19.80;99.90
55693;DHT22;41590;53.366;5.212;2023-07-28T19:21:48;19.80;99.90
55693;DHT22;41590;53.366;5.212;2023-07-28T19:24:17;19.70;99.90
55693;DHT22;41590;53.366;5.212;2023-07-28T19:26:46;19.90;99.90
55693;DHT22;41590;53.366;5.212;2023-07-28T19:29:12;19.80;99.90
55693;DHT22;41590;53.366;5.212;2023-07-28T19:31:39;19.60;99.90
55693;DHT22;41590;53.366;5.212;2023-07-28T19:34:05;19.60;99.90
55693;DHT22;41590;53.366;5.212;2023-07-28T19:36:31;19.60;99.90
55693;DHT22;41590;53.366;5.212;2023-07-28T19:38:59;19.60;99.90
55693;DHT22;41590;53.366;5.212;2023-07-28T19:41:24;19.50;99.90
55693;DHT22;41590;53.366;5.212;2023-07-28T19:43:55;19.40;99.90
55693;DHT22;41590;53.366;5.212;2023-07-28T19:46:21;19.40;99.90
55693;DHT22;41590;53.366;5.212;2023-07-28T19:48:47;19.60;99.90
55693;DHT22;41590;53.366;5.212;2023-07-28T19:51:22;19.40;99.90
55693;DHT22;41590;53.366;5.212;2023-07-28T19:53:49;19.40;99.90
55693;DHT22;41590;53.366;5.212;2023-07-28T19:56:19;19.50;99.90
55693;DHT22;41590;53.366;5.212;2023-07-28T19:58:47;19.40;99.90
55693;DHT22;41590;53.366;5.212;2023-07-28T20:01:16;19.30;99.90
55693;DHT22;41590;53.366;5.212;2023-07-28T20:03:42;19.50;99.90
55693;DHT22;41590;53.366;5.212;2023-07-28T20:06:08;19.20;99.90
55693;DHT22;41590;53.366;5.212;2023-07-28T20:08:46;19.20;99.90
55693;DHT22;41590;53.366;5.212;2023-07-28T20:11:35;19.20;99.90
55693;DHT22;41590;53.366;5.212;2023-07-28T20:14:12;19.20;99.90
55693;DHT22;41590;53.366;5.212;2023-07-28T20:16:38;19.20;99.90
55693;DHT22;41590;53.366;5.212;2023-07-28T20:19:04;19.30;99.90
55693;DHT22;41590;53.366;5.212;2023-07-28T20:21:30;19.20;99.90
55693;DHT22;41590;53.366;5.212;2023-07-28T20:23:56;19.20;99.90
55693;DHT22;41590;53.366;5.212;2023-07-28T20:26:22;19.20;99.90
55693;DHT22;41590;53.366;5.212;2023-07-28T20:28:48;19.10;99.90
55693;DHT22;41590;53.366;5.212;2023-07-28T20:31:15;19.30;99.90
55693;DHT22;41590;53.366;5.212;2023-07-28T20:33:41;19.30;99.90
55693;DHT22;41590;53.366;5.212;2023-07-28T20:36:07;19.30;99.90
55693;DHT22;41590;53.366;5.212;2023-07-28T20:38:33;19.30;99.90
55693;DHT22;41590;53.366;5.212;2023-07-28T20:41:12;19.20;99.90
55693;DHT22;41590;53.366;5.212;2023-07-28T20:43:44;19.30;99.90
55693;DHT22;41590;53.366;5.212;2023-07-28T20:46:10;19.30;99.90
55693;DHT22;41590;53.366;5.212;2023-07-28T20:48:36;19.20;99.90
55693;DHT22;41590;53.366;5.212;2023-07-28T20:51:02;19.00;99.90
55693;DHT22;41590;53.366;5.212;2023-07-28T20:53:28;19.00;99.90
55693;DHT22;41590;53.366;5.212;2023-07-28T20:55:59;19.20;99.90
55693;DHT22;41590;53.366;5.212;2023-07-28T20:58:26;18.90;99.90
55693;DHT22;41590;53.366;5.212;2023-07-28T21:00:52;18.90;99.90
55693;DHT22;41590;53.366;5.212;2023-07-28T21:03:24;18.90;99.90
55693;DHT22;41590;53.366;5.212;2023-07-28T21:05:52;18.90;99.90
55693;DHT22;41590;53.366;5.212;2023-07-28T21:08:18;18.90;99.90
55693;DHT22;41590;53.366;5.212;2023-07-28T21:10:48;19.10;99.90
55693;DHT22;41590;53.366;5.212;2023-07-28T21:13:15;19.00;99.90
55693;DHT22;41590;53.366;5.212;2023-07-28T21:15:43;19.10;99.90
55693;DHT22;41590;53.366;5.212;2023-07-28T21:18:10;18.80;99.90
55693;DHT22;41590;53.366;5.212;2023-07-28T21:20:35;19.00;99.90
55693;DHT22;41590;53.366;5.212;2023-07-28T21:23:02;19.00;99.90
55693;DHT22;41590;53.366;5.212;2023-07-28T21:25:28;18.70;99.90
55693;DHT22;41590;53.366;5.212;2023-07-28T21:27:54;19.00;99.90
55693;DHT22;41590;53.366;5.212;2023-07-28T21:30:28;18.90;99.90
55693;DHT22;41590;53.366;5.212;2023-07-28T21:33:04;18.70;99.90
55693;DHT22;41590;53.366;5.212;2023-07-28T21:35:33;19.00;99.90
55693;DHT22;41590;53.366;5.212;2023-07-28T21:38:02;18.60;99.90
55693;DHT22;41590;53.366;5.212;2023-07-28T21:40:27;18.90;99.90
55693;DHT22;41590;53.366;5.212;2023-07-28T21:42:53;18.60;99.90
55693;DHT22;41590;53.366;5.212;2023-07-28T21:45:19;18.60;99.90
55693;DHT22;41590;53.366;5.212;2023-07-28T21:47:45;18.60;99.90
55693;DHT22;41590;53.366;5.212;2023-07-28T21:50:12;18.60;99.90
55693;DHT22;41590;53.366;5.212;2023-07-28T21:52:42;18.70;99.90
55693;DHT22;41590;53.366;5.212;2023-07-28T21:55:10;18.50;99.90
55693;DHT22;41590;53.366;5.212;2023-07-28T21:57:41;18.70;99.90
55693;DHT22;41590;53.366;5.212;2023-07-28T22:00:15;18.70;99.90
55693;DHT22;41590;53.366;5.212;2023-07-28T22:02:41;18.60;99.90
55693;DHT22;41590;53.366;5.212;2023-07-28T22:05:08;18.70;99.90
55693;DHT22;41590;53.366;5.212;2023-07-28T22:07:34;18.60;99.90
55693;DHT22;41590;53.366;5.212;2023-07-28T22:10:02;18.40;99.90
55693;DHT22;41590;53.366;5.212;2023-07-28T22:12:29;18.50;99.90
55693;DHT22;41590;53.366;5.212;2023-07-28T22:14:55;18.50;99.90
55693;DHT22;41590;53.366;5.212;2023-07-28T22:17:24;18.50;99.90
55693;DHT22;41590;53.366;5.212;2023-07-28T22:19:50;18.40;99.90
55693;DHT22;41590;53.366;5.212;2023-07-28T22:22:16;18.70;99.90
55693;DHT22;41590;53.366;5.212;2023-07-28T22:24:42;18.60;99.90
55693;DHT22;41590;53.366;5.212;2023-07-28T22:27:09;18.60;99.90
55693;DHT22;41590;53.366;5.212;2023-07-28T22:29:36;18.60;99.90
55693;DHT22;41590;53.366;5.212;2023-07-28T22:32:01;18.70;99.90
55693;DHT22;41590;53.366;5.212;2023-07-28T22:34:27;18.30;99.90
55693;DHT22;41590;53.366;5.212;2023-07-28T22:36:54;18.40;99.90
55693;DHT22;41590;53.366;5.212;2023-07-28T22:39:20;18.50;99.90
55693;DHT22;41590;53.366;5.212;2023-07-28T22:41:45;18.70;99.90
55693;DHT22;41590;53.366;5.212;2023-07-28T22:44:11;18.30;99.90
55693;DHT22;41590;53.366;5.212;2023-07-28T22:46:37;18.60;99.90
55693;DHT22;41590;53.366;5.212;2023-07-28T22:49:03;18.40;99.90
55693;DHT22;41590;53.366;5.212;2023-07-28T22:51:28;18.30;99.90
55693;DHT22;41590;53.366;5.212;2023-07-28T22:53:54;18.50;99.90
55693;DHT22;41590;53.366;5.212;2023-07-28T22:56:20;18.40;99.90
55693;DHT22;41590;53.366;5.212;2023-07-28T22:58:46;18.50;99.90
55693;DHT22;41590;53.366;5.212;2023-07-28T23:01:11;18.30;99.90
55693;DHT22;41590;53.366;5.212;2023-07-28T23:03:37;18.50;99.90
55693;DHT22;41590;53.366;5.212;2023-07-28T23:06:04;18.50;99.90
55693;DHT22;41590;53.366;5.212;2023-07-28T23:08:30;18.50;99.90
55693;DHT22;41590;53.366;5.212;2023-07-28T23:11:02;18.30;99.90
55693;DHT22;41590;53.366;5.212;2023-07-28T23:13:29;18.20;99.90
55693;DHT22;41590;53.366;5.212;2023-07-28T23:15:54;18.40;99.90
55693;DHT22;41590;53.366;5.212;2023-07-28T23:18:20;18.10;99.90
55693;DHT22;41590;53.366;5.212;2023-07-28T23:20:46;18.40;99.90
55693;DHT22;41590;53.366;5.212;2023-07-28T23:23:13;18.40;99.90
55693;DHT22;41590;53.366;5.212;2023-07-28T23:25:38;18.10;99.90
55693;DHT22;41590;53.366;5.212;2023-07-28T23:28:08;18.30;99.90
55693;DHT22;41590;53.366;5.212;2023-07-28T23:34:22;18.60;99.90
55693;DHT22;41590;53.366;5.212;2023-07-28T23:39:51;18.40;99.90
55693;DHT22;41590;53.366;5.212;2023-07-28T23:42:19;18.20;99.90
55693;DHT22;41590;53.366;5.212;2023-07-28T23:44:45;18.60;99.90
55693;DHT22;41590;53.366;5.212;2023-07-28T23:47:11;18.50;99.90
55693;DHT22;41590;53.366;5.212;2023-07-28T23:49:37;18.20;99.90
55693;DHT22;41590;53.366;5.212;2023-07-28T23:52:03;18.60;99.90
55693;DHT22;41590;53.366;5.212;2023-07-28T23:54:28;18.60;99.90
55693;DHT22;41590;53.366;5.212;2023-07-28T23:56:54;18.40;99.90
55693;DHT22;41590;53.366;5.212;2023-07-28T23:59:20;18.60;99.90
